aviador You're here:

KLUK Decoded Metar

CINCINNATI in OH, USA
Report Time2018-06-21 12:04:00
UTC Time2018-06-21 12:29:33
Flight Rules vfr VFR
Wind210° at 06 kt
W.Decomp.*RWY 21: 6.0 kt HW 0.4 kt RCW
RWY 25: 4.9 kt HW 3.5 kt LCW
W.Rank210° ranks 2
Current wind is below 210° avg. (8.0)
Visibility9999 m
Phenomena:N/A
Clouds:Few 006 Hf
Overcast 034 Hf
Ceiling3,400 ft
Temp23°C (ISA +9)
Dew Point23°C (100% RH)
QNH1009 hPa
Density Alt2,064 ft
Elevation509 ft
Report Wrong Elevation
Raw Report
KLUK 211204Z 21006KT 10SM FEW006 OVC034 23/23 A2981 RMK AO2
T02330228=

Extra information for KLUK:More info

Metar Taf Metar & Taf Last 4 Metars F.Rules Stats Wind Profile Meteogram Temp Stats Airport Information Weather charts Add Link Nearby VenuesMetar ALERT Operation Metar Decoded Social comments

AIRNAV info for KLUK